Kellysville, West Virginia
Current Conditions -  °F | °C
As of 1:52 AM on Friday 31 Oct 2014 (Local Time) from KBLF Reporting Station
Clear Clear  
Wind Chill: 37°   Ceiling: Unl
Heat Index: 37°   Visibility: 10mi
Dew Point: 30°   Wind: 0mph
Humidity: 76%   Direction: NA
Pressure: 30"   Gusts: NA
Location:  37.34°N, 80.93°W
Report Text: KBLF 310552Z AUTO 00000KT 10SM CLR 03/M01 A3000 RMK AO2 SLP160 T00281011 10067 20017 58011
Loading
Personal Weather Stations






























Interactive Weather Map
Tropical Storm Tracking
New forecast layout! Learn more

10-Day Weather Forecast

Advertisements
Track Severe Weather on mobile